sensor_id;sensor_type;location;lat;lon;timestamp;pressure;altitude;pressure_sealevel;temperature;humidity
71956;BME280;59829;50.562;6.258;2022-08-24T00:04:26;95982.16;;;20.92;57.73
71956;BME280;59829;50.562;6.258;2022-08-24T00:14:27;95984.88;;;20.84;57.50
71956;BME280;59829;50.562;6.258;2022-08-24T00:24:27;95977.50;;;20.72;57.64
71956;BME280;59829;50.562;6.258;2022-08-24T00:34:28;95991.41;;;20.65;58.46
71956;BME280;59829;50.562;6.258;2022-08-24T00:44:29;95989.72;;;20.57;57.98
71956;BME280;59829;50.562;6.258;2022-08-24T00:54:32;95995.09;;;20.70;58.18
71956;BME280;59829;50.562;6.258;2022-08-24T01:04:42;95979.41;;;20.49;58.53
71956;BME280;59829;50.562;6.258;2022-08-24T01:14:43;95969.81;;;20.12;58.98
71956;BME280;59829;50.562;6.258;2022-08-24T01:24:43;95975.66;;;20.29;58.82
71956;BME280;59829;50.562;6.258;2022-08-24T01:34:44;95985.91;;;20.15;58.51
71956;BME280;59829;50.562;6.258;2022-08-24T01:44:45;95989.47;;;20.14;58.69
71956;BME280;59829;50.562;6.258;2022-08-24T01:54:46;95982.47;;;20.00;58.79
71956;BME280;59829;50.562;6.258;2022-08-24T02:04:47;95978.25;;;19.99;58.70
71956;BME280;59829;50.562;6.258;2022-08-24T02:14:47;95987.78;;;19.84;59.06
71956;BME280;59829;50.562;6.258;2022-08-24T02:24:48;95984.56;;;19.82;58.91
71956;BME280;59829;50.562;6.258;2022-08-24T02:34:48;95982.00;;;19.74;58.98
71956;BME280;59829;50.562;6.258;2022-08-24T02:44:49;95985.25;;;19.76;59.17
71956;BME280;59829;50.562;6.258;2022-08-24T02:54:49;95986.66;;;19.64;59.01
71956;BME280;59829;50.562;6.258;2022-08-24T03:04:50;95983.28;;;19.55;58.76
71956;BME280;59829;50.562;6.258;2022-08-24T03:14:50;95987.19;;;19.28;58.38
71956;BME280;59829;50.562;6.258;2022-08-24T03:24:50;95981.09;;;19.44;59.41
71956;BME280;59829;50.562;6.258;2022-08-24T03:34:51;95977.72;;;19.35;59.46
71956;BME280;59829;50.562;6.258;2022-08-24T03:44:53;95977.44;;;19.30;59.78
71956;BME280;59829;50.562;6.258;2022-08-24T03:54:53;95974.22;;;19.20;59.93
71956;BME280;59829;50.562;6.258;2022-08-24T04:04:54;95962.97;;;19.05;59.90
71956;BME280;59829;50.562;6.258;2022-08-24T04:14:54;95988.63;;;19.00;60.00
71956;BME280;59829;50.562;6.258;2022-08-24T04:24:57;95977.25;;;19.01;59.81
71956;BME280;59829;50.562;6.258;2022-08-24T04:34:57;95976.03;;;18.88;60.25
71956;BME280;59829;50.562;6.258;2022-08-24T04:44:58;95985.75;;;18.94;60.30
71956;BME280;59829;50.562;6.258;2022-08-24T04:54:58;95987.34;;;18.95;59.80
71956;BME280;59829;50.562;6.258;2022-08-24T05:04:59;95980.97;;;18.75;60.58
71956;BME280;59829;50.562;6.258;2022-08-24T05:15:00;95995.81;;;18.89;60.90
71956;BME280;59829;50.562;6.258;2022-08-24T05:25:00;95992.31;;;19.05;60.29
71956;BME280;59829;50.562;6.258;2022-08-24T05:35:01;96000.16;;;18.97;61.35
71956;BME280;59829;50.562;6.258;2022-08-24T05:45:04;96001.63;;;18.91;62.58
71956;BME280;59829;50.562;6.258;2022-08-24T05:55:06;96005.41;;;19.20;62.65
71956;BME280;59829;50.562;6.258;2022-08-24T06:05:07;96007.44;;;19.02;63.95
71956;BME280;59829;50.562;6.258;2022-08-24T06:15:15;96015.75;;;18.97;65.04
71956;BME280;59829;50.562;6.258;2022-08-24T06:25:57;96013.91;;;19.68;64.46
71956;BME280;59829;50.562;6.258;2022-08-24T06:36:28;96025.91;;;19.69;65.47
71956;BME280;59829;50.562;6.258;2022-08-24T06:46:52;96030.44;;;20.12;65.18
71956;BME280;59829;50.562;6.258;2022-08-24T06:56:52;96029.03;;;19.87;67.92
71956;BME280;59829;50.562;6.258;2022-08-24T07:06:55;96035.81;;;20.11;68.40
71956;BME280;59829;50.562;6.258;2022-08-24T07:17:13;96032.97;;;20.88;66.04
71956;BME280;59829;50.562;6.258;2022-08-24T07:27:32;96049.66;;;20.78;66.86
71956;BME280;59829;50.562;6.258;2022-08-24T07:37:53;96046.31;;;21.14;59.43
71956;BME280;59829;50.562;6.258;2022-08-24T07:48:02;96056.59;;;21.52;57.57
71956;BME280;59829;50.562;6.258;2022-08-24T07:58:03;96048.59;;;21.89;56.63
71956;BME280;59829;50.562;6.258;2022-08-24T09:00:21;96051.81;;;24.52;49.70
71956;BME280;59829;50.562;6.258;2022-08-24T11:26:08;95997.31;;;28.96;36.82
71956;BME280;59829;50.562;6.258;2022-08-24T11:36:20;95995.84;;;29.69;36.41
71956;BME280;59829;50.562;6.258;2022-08-24T11:47:00;95982.56;;;31.25;32.16
71956;BME280;59829;50.562;6.258;2022-08-24T11:57:07;95992.41;;;29.00;37.13
71956;BME280;59829;50.562;6.258;2022-08-24T12:17:53;95974.44;;;28.62;36.39
71956;BME280;59829;50.562;6.258;2022-08-24T12:27:56;95983.91;;;28.04;38.40
71956;BME280;59829;50.562;6.258;2022-08-24T12:48:22;95973.25;;;28.81;34.42
71956;BME280;59829;50.562;6.258;2022-08-24T12:58:58;95968.44;;;28.08;36.28
71956;BME280;59829;50.562;6.258;2022-08-24T13:09:13;95970.13;;;28.32;34.72
71956;BME280;59829;50.562;6.258;2022-08-24T13:29:32;95968.91;;;27.81;37.28
71956;BME280;59829;50.562;6.258;2022-08-24T14:11:05;95951.97;;;28.01;37.96
71956;BME280;59829;50.562;6.258;2022-08-24T14:21:14;95940.03;;;27.86;37.13
71956;BME280;59829;50.562;6.258;2022-08-24T14:31:19;95945.16;;;27.70;38.05
71956;BME280;59829;50.562;6.258;2022-08-24T14:41:33;95935.03;;;28.20;36.05
71956;BME280;59829;50.562;6.258;2022-08-24T14:51:48;95931.31;;;27.74;37.18
71956;BME280;59829;50.562;6.258;2022-08-24T15:02:35;95928.25;;;27.89;37.17
71956;BME280;59829;50.562;6.258;2022-08-24T15:23:03;95906.97;;;27.79;36.64
71956;BME280;59829;50.562;6.258;2022-08-24T15:33:15;95908.69;;;28.20;34.57
71956;BME280;59829;50.562;6.258;2022-08-24T15:43:17;95905.00;;;28.44;31.96
71956;BME280;59829;50.562;6.258;2022-08-24T15:53:32;95891.03;;;28.96;30.51
71956;BME280;59829;50.562;6.258;2022-08-24T16:03:51;95894.59;;;29.01;30.42
71956;BME280;59829;50.562;6.258;2022-08-24T16:13:52;95886.38;;;27.87;34.30
71956;BME280;59829;50.562;6.258;2022-08-24T16:34:29;95894.28;;;28.34;33.73
71956;BME280;59829;50.562;6.258;2022-08-24T16:44:37;95882.25;;;28.90;32.98
71956;BME280;59829;50.562;6.258;2022-08-24T16:54:39;95884.44;;;27.95;33.59
71956;BME280;59829;50.562;6.258;2022-08-24T17:04:39;95894.25;;;27.87;33.69
71956;BME280;59829;50.562;6.258;2022-08-24T17:14:41;95903.59;;;27.60;34.54
71956;BME280;59829;50.562;6.258;2022-08-24T17:24:43;95891.34;;;27.54;35.24
71956;BME280;59829;50.562;6.258;2022-08-24T17:34:43;95891.41;;;27.36;35.26
71956;BME280;59829;50.562;6.258;2022-08-24T17:44:44;95895.41;;;27.26;35.06
71956;BME280;59829;50.562;6.258;2022-08-24T18:05:23;95906.69;;;27.15;34.89
71956;BME280;59829;50.562;6.258;2022-08-24T18:15:25;95916.06;;;26.74;35.11
71956;BME280;59829;50.562;6.258;2022-08-24T18:25:33;95916.50;;;26.71;34.93
71956;BME280;59829;50.562;6.258;2022-08-24T18:35:36;95932.09;;;26.30;35.61
71956;BME280;59829;50.562;6.258;2022-08-24T18:45:37;95945.50;;;26.22;36.02
71956;BME280;59829;50.562;6.258;2022-08-24T18:55:38;95945.06;;;26.00;35.87
71956;BME280;59829;50.562;6.258;2022-08-24T19:05:49;95965.91;;;25.70;36.72
71956;BME280;59829;50.562;6.258;2022-08-24T19:37:24;95986.28;;;25.30;39.97
71956;BME280;59829;50.562;6.258;2022-08-24T19:47:24;95985.59;;;25.09;40.28
71956;BME280;59829;50.562;6.258;2022-08-24T20:07:36;95984.28;;;24.74;41.00
71956;BME280;59829;50.562;6.258;2022-08-24T20:17:37;95988.34;;;24.56;42.25
71956;BME280;59829;50.562;6.258;2022-08-24T20:27:38;95989.78;;;24.06;43.18
71956;BME280;59829;50.562;6.258;2022-08-24T20:37:39;95980.91;;;24.20;44.06
71956;BME280;59829;50.562;6.258;2022-08-24T20:47:42;95980.91;;;24.27;43.25
71956;BME280;59829;50.562;6.258;2022-08-24T20:57:54;95976.50;;;24.01;43.50
71956;BME280;59829;50.562;6.258;2022-08-24T21:07:56;95976.41;;;23.35;44.81
71956;BME280;59829;50.562;6.258;2022-08-24T21:17:56;95972.00;;;23.49;45.02
71956;BME280;59829;50.562;6.258;2022-08-24T21:27:59;95979.28;;;23.60;44.95
71956;BME280;59829;50.562;6.258;2022-08-24T21:38:00;95987.66;;;23.29;45.14
71956;BME280;59829;50.562;6.258;2022-08-24T21:48:01;95982.75;;;23.12;45.57
71956;BME280;59829;50.562;6.258;2022-08-24T21:58:02;95980.31;;;23.04;45.78
71956;BME280;59829;50.562;6.258;2022-08-24T22:08:02;95984.66;;;22.91;46.01
71956;BME280;59829;50.562;6.258;2022-08-24T22:18:03;95986.56;;;22.69;46.33
71956;BME280;59829;50.562;6.258;2022-08-24T23:29:12;95966.59;;;21.98;48.47
71956;BME280;59829;50.562;6.258;2022-08-24T23:39:34;95971.09;;;21.83;48.97
71956;BME280;59829;50.562;6.258;2022-08-24T23:49:33;95976.81;;;21.51;49.73
71956;BME280;59829;50.562;6.258;2022-08-24T23:59:34;95966.75;;;21.48;49.72
